Time;durP1;ratioP1;P1;durP2;ratioP2;P2;SDS_P1;SDS_P2;PMS_P1;PMS_P2;Temp;Humidity;BMP_temperature;BMP_pressure;BME280_temperature;BME280_humidity;BME280_pressure;Samples;Min_cycle;Max_cycle;Signal;HPM_P1;HPM_P2
2022/05/27 00:00:53;;;;;;;5.40;1.90;;;;;;;;;;5129004;27;20235;-19
2022/05/27 00:03:21;;;;;;;5.75;1.90;;;;;;;;;;5131648;27;20694;-19
2022/05/27 00:05:51;;;;;;;4.25;1.60;;;;;;;;;;5098020;27;20224;-18
2022/05/27 00:08:18;;;;;;;5.65;2.03;;;;;;;;;;5090779;28;20227;-18
2022/05/27 00:10:46;;;;;;;5.78;2.00;;;;;;;;;;5090644;28;20236;-18
2022/05/27 00:13:13;;;;;;;4.82;1.83;;;;;;;;;;5108442;28;21096;-18
2022/05/27 00:15:42;;;;;;;8.05;2.80;;;;;;;;;;5113333;27;20220;-18
2022/05/27 00:18:10;;;;;;;3.88;1.85;;;;;;;;;;5114846;27;20683;-19
2022/05/27 00:20:37;;;;;;;4.15;2.58;;;;;;;;;;5114609;27;20235;-19
2022/05/27 00:23:05;;;;;;;5.10;1.88;;;;;;;;;;5112644;27;20236;-19
2022/05/27 00:25:32;;;;;;;3.88;2.03;;;;;;;;;;5114618;27;20513;-19
2022/05/27 00:27:59;;;;;;;6.43;2.10;;;;;;;;;;5114560;27;20232;-19
2022/05/27 00:30:26;;;;;;;4.47;1.88;;;;;;;;;;5114470;27;21051;-19
2022/05/27 00:32:55;;;;;;;5.30;2.45;;;;;;;;;;5114314;27;20326;-19
2022/05/27 00:35:23;;;;;;;5.75;2.40;;;;;;;;;;5113959;27;20228;-18
2022/05/27 00:37:51;;;;;;;5.82;2.13;;;;;;;;;;5114234;27;20318;-19
2022/05/27 00:40:19;;;;;;;4.82;2.00;;;;;;;;;;5114451;27;20703;-19
2022/05/27 00:42:46;;;;;;;5.45;2.10;;;;;;;;;;5114397;27;20745;-19
2022/05/27 00:45:14;;;;;;;4.25;1.90;;;;;;;;;;5113730;27;20224;-19
2022/05/27 00:47:42;;;;;;;5.10;1.75;;;;;;;;;;5113890;27;20212;-19
2022/05/27 00:50:11;;;;;;;5.75;1.70;;;;;;;;;;5114121;27;20964;-19
2022/05/27 00:52:39;;;;;;;4.85;2.00;;;;;;;;;;5114154;27;20691;-18
2022/05/27 00:55:06;;;;;;;5.07;1.85;;;;;;;;;;5113620;27;20255;-18
2022/05/27 00:57:34;;;;;;;4.03;1.63;;;;;;;;;;5134498;27;20231;-18
2022/05/27 01:00:04;;;;;;;5.25;2.17;;;;;;;;;;5134466;27;20330;-19
2022/05/27 01:02:31;;;;;;;4.82;2.17;;;;;;;;;;5093609;28;20707;-19
2022/05/27 01:04:59;;;;;;;4.05;1.60;;;;;;;;;;5092798;28;20229;-19
2022/05/27 01:07:27;;;;;;;4.18;1.90;;;;;;;;;;5090633;27;20336;-19
2022/05/27 01:09:55;;;;;;;3.60;2.00;;;;;;;;;;5095371;28;20330;-19
2022/05/27 01:12:27;;;;;;;6.15;1.83;;;;;;;;;;5128306;27;20234;-18
2022/05/27 01:14:59;;;;;;;6.63;2.13;;;;;;;;;;5134132;27;20827;-19
2022/05/27 01:17:28;;;;;;;4.28;1.50;;;;;;;;;;5126023;27;20233;-19
2022/05/27 01:20:19;;;;;;;5.35;1.73;;;;;;;;;;5134345;27;20219;-19
2022/05/27 01:22:54;;;;;;;3.22;1.50;;;;;;;;;;5124076;27;20228;-18
2022/05/27 01:25:36;;;;;;;4.93;1.52;;;;;;;;;;5125427;27;20230;-18
2022/05/27 01:28:18;;;;;;;3.85;1.48;;;;;;;;;;5117164;27;20279;-18
2022/05/27 01:30:47;;;;;;;4.55;1.60;;;;;;;;;;5116204;27;20270;-19
2022/05/27 01:33:17;;;;;;;3.83;1.35;;;;;;;;;;5122037;27;20235;-19
2022/05/27 01:35:45;;;;;;;2.85;1.48;;;;;;;;;;5127820;27;20601;-18
2022/05/27 01:38:14;;;;;;;2.70;1.30;;;;;;;;;;5133010;27;20903;-18
2022/05/27 01:40:45;;;;;;;3.80;1.60;;;;;;;;;;5133565;27;20665;-19
2022/05/27 01:43:13;;;;;;;2.47;1.33;;;;;;;;;;5133915;27;20235;-18
2022/05/27 01:45:41;;;;;;;5.25;1.48;;;;;;;;;;5127647;27;20231;-18
2022/05/27 01:48:18;;;;;;;3.55;1.70;;;;;;;;;;5130747;27;20231;-19
2022/05/27 01:50:45;;;;;;;3.80;1.40;;;;;;;;;;5133592;27;20232;-19
2022/05/27 01:53:15;;;;;;;4.68;1.60;;;;;;;;;;5133621;27;20231;-19
2022/05/27 01:55:43;;;;;;;4.05;1.50;;;;;;;;;;5133623;27;20231;-18
2022/05/27 01:58:12;;;;;;;2.47;1.25;;;;;;;;;;5129218;27;20986;-19
2022/05/27 02:00:39;;;;;;;2.08;1.20;;;;;;;;;;5129500;27;20229;-19
2022/05/27 02:03:07;;;;;;;2.75;1.10;;;;;;;;;;5132531;27;20714;-19
2022/05/27 02:05:37;;;;;;;2.35;1.27;;;;;;;;;;5133822;27;20294;-19
2022/05/27 02:08:04;;;;;;;3.15;1.20;;;;;;;;;;5128243;27;20227;-19
2022/05/27 02:10:33;;;;;;;2.10;1.30;;;;;;;;;;5133733;27;20228;-19
2022/05/27 02:13:01;;;;;;;2.15;1.05;;;;;;;;;;5125492;27;20253;-18
2022/05/27 02:15:29;;;;;;;2.75;1.27;;;;;;;;;;5113082;27;20254;-19
2022/05/27 02:17:58;;;;;;;4.60;1.40;;;;;;;;;;5133158;27;20227;-19
2022/05/27 02:23:07;;;;;;;2.03;1.00;;;;;;;;;;5105547;28;20238;-15
2022/05/27 02:25:35;;;;;;;3.13;1.33;;;;;;;;;;5113290;27;20232;-15
2022/05/27 02:28:04;;;;;;;2.97;1.25;;;;;;;;;;5111830;28;20228;-15
2022/05/27 02:30:33;;;;;;;2.22;1.10;;;;;;;;;;5111972;27;20236;-15
2022/05/27 02:35:46;;;;;;;1.60;0.85;;;;;;;;;;5110895;28;20235;-15
2022/05/27 02:38:15;;;;;;;5.32;1.50;;;;;;;;;;5112115;28;20221;-15
2022/05/27 02:40:43;;;;;;;3.78;1.42;;;;;;;;;;5111899;27;20235;-15
2022/05/27 02:43:11;;;;;;;2.72;1.20;;;;;;;;;;5112438;27;20716;-15
2022/05/27 02:45:40;;;;;;;4.22;1.38;;;;;;;;;;5112663;27;20285;-15
2022/05/27 02:48:10;;;;;;;1.25;1.00;;;;;;;;;;5112650;28;20278;-15
2022/05/27 02:50:39;;;;;;;1.38;0.85;;;;;;;;;;5112215;27;20603;-15
2022/05/27 02:53:07;;;;;;;2.53;1.10;;;;;;;;;;5111288;27;20740;-15
2022/05/27 02:55:37;;;;;;;2.67;0.93;;;;;;;;;;5112287;27;20232;-15
2022/05/27 02:58:05;;;;;;;2.70;1.30;;;;;;;;;;5111939;28;20224;-16
2022/05/27 03:00:33;;;;;;;2.97;1.20;;;;;;;;;;5112054;27;20228;-16
2022/05/27 03:03:00;;;;;;;3.80;1.30;;;;;;;;;;5103382;27;20241;-16
2022/05/27 03:05:28;;;;;;;2.50;1.15;;;;;;;;;;5107734;28;20239;-16
2022/05/27 03:07:59;;;;;;;1.55;0.90;;;;;;;;;;5112093;27;20220;-16
2022/05/27 03:10:28;;;;;;;4.50;1.30;;;;;;;;;;5112268;28;20227;-16
2022/05/27 03:13:00;;;;;;;4.00;1.00;;;;;;;;;;5112317;27;20208;-16
2022/05/27 03:15:30;;;;;;;2.30;0.98;;;;;;;;;;5110954;27;20242;-16
2022/05/27 03:18:04;;;;;;;1.95;0.98;;;;;;;;;;5107251;28;20254;-16
2022/05/27 03:20:35;;;;;;;2.17;1.20;;;;;;;;;;5108126;28;20238;-16
2022/05/27 03:23:06;;;;;;;1.95;1.20;;;;;;;;;;5055074;28;20234;-16
2022/05/27 03:25:35;;;;;;;3.38;1.30;;;;;;;;;;5066060;28;20233;-16
2022/05/27 03:28:05;;;;;;;2.45;0.95;;;;;;;;;;5059351;28;20222;-16
2022/05/27 03:30:33;;;;;;;2.17;1.23;;;;;;;;;;5063175;28;20233;-16
2022/05/27 03:33:01;;;;;;;2.53;1.10;;;;;;;;;;5059642;28;20248;-16
2022/05/27 03:35:33;;;;;;;1.85;1.00;;;;;;;;;;5061967;28;20233;-16
2022/05/27 03:38:01;;;;;;;6.05;1.10;;;;;;;;;;5062985;28;20227;-16
2022/05/27 03:40:29;;;;;;;1.30;1.05;;;;;;;;;;5059015;28;20226;-16
2022/05/27 03:42:57;;;;;;;2.75;1.17;;;;;;;;;;5062648;28;20230;-16
2022/05/27 03:45:26;;;;;;;3.17;1.20;;;;;;;;;;5061586;28;20233;-16
2022/05/27 03:47:53;;;;;;;4.25;1.10;;;;;;;;;;5058597;28;20226;-16
2022/05/27 03:50:21;;;;;;;2.67;1.17;;;;;;;;;;5062881;28;20260;-16
2022/05/27 03:52:50;;;;;;;2.42;1.30;;;;;;;;;;5066456;28;20700;-16
2022/05/27 03:55:19;;;;;;;3.83;1.27;;;;;;;;;;5064310;28;20229;-16
2022/05/27 03:57:47;;;;;;;2.83;1.30;;;;;;;;;;5067944;28;20236;-16
2022/05/27 04:00:14;;;;;;;2.88;1.38;;;;;;;;;;5065258;28;20228;-16
2022/05/27 04:02:43;;;;;;;2.80;1.20;;;;;;;;;;5066195;28;20229;-16
2022/05/27 04:05:11;;;;;;;3.35;1.30;;;;;;;;;;5064475;28;21009;-16
2022/05/27 04:07:38;;;;;;;3.85;1.20;;;;;;;;;;5062533;28;20238;-16
2022/05/27 04:10:08;;;;;;;1.85;1.17;;;;;;;;;;5064535;28;21048;-16
2022/05/27 04:12:35;;;;;;;4.53;1.48;;;;;;;;;;5065200;28;20243;-16
2022/05/27 04:15:03;;;;;;;2.13;1.13;;;;;;;;;;5061827;28;20607;-16
2022/05/27 04:17:33;;;;;;;3.40;1.13;;;;;;;;;;5062042;28;21016;-16
2022/05/27 04:20:06;;;;;;;4.25;1.42;;;;;;;;;;5061655;28;20226;-16
2022/05/27 04:22:33;;;;;;;3.72;1.10;;;;;;;;;;5094372;28;20248;-16
2022/05/27 04:25:01;;;;;;;5.10;1.60;;;;;;;;;;5102712;28;20235;-16
2022/05/27 04:27:29;;;;;;;2.58;1.40;;;;;;;;;;5102570;28;20220;-16
2022/05/27 04:29:56;;;;;;;3.60;1.60;;;;;;;;;;5105875;28;20228;-16
2022/05/27 04:32:25;;;;;;;2.17;1.10;;;;;;;;;;5104314;27;20725;-16
2022/05/27 04:34:52;;;;;;;2.65;1.30;;;;;;;;;;5103251;27;20229;-16
2022/05/27 04:37:22;;;;;;;4.47;1.45;;;;;;;;;;5105216;28;20240;-16
2022/05/27 04:39:49;;;;;;;3.22;1.38;;;;;;;;;;5103691;28;20235;-16
2022/05/27 04:42:16;;;;;;;2.00;1.17;;;;;;;;;;5105731;28;20263;-16
2022/05/27 04:44:44;;;;;;;2.53;1.27;;;;;;;;;;5104285;28;20227;-16
2022/05/27 04:47:11;;;;;;;3.40;1.40;;;;;;;;;;5105737;28;20231;-16
2022/05/27 04:49:54;;;;;;;5.50;1.42;;;;;;;;;;5104025;28;20323;-16
2022/05/27 04:52:23;;;;;;;3.08;1.52;;;;;;;;;;5104069;28;20270;-16
2022/05/27 04:54:51;;;;;;;3.53;1.48;;;;;;;;;;5105861;28;20934;-16
2022/05/27 04:57:19;;;;;;;4.10;1.45;;;;;;;;;;5103053;28;20228;-16
2022/05/27 04:59:49;;;;;;;3.97;1.80;;;;;;;;;;5104163;28;20237;-16
2022/05/27 05:02:17;;;;;;;3.08;1.50;;;;;;;;;;5103315;28;20242;-16
2022/05/27 05:04:44;;;;;;;3.20;1.33;;;;;;;;;;5104964;27;20228;-16
2022/05/27 05:07:12;;;;;;;4.05;1.40;;;;;;;;;;5103086;28;20232;-16
2022/05/27 05:09:41;;;;;;;2.38;1.05;;;;;;;;;;5104543;28;21052;-16
2022/05/27 05:12:08;;;;;;;3.97;1.20;;;;;;;;;;5102737;28;20236;-16
2022/05/27 05:14:35;;;;;;;3.47;1.35;;;;;;;;;;5104715;28;20687;-16
2022/05/27 05:17:03;;;;;;;3.72;1.38;;;;;;;;;;5100951;28;20235;-16
2022/05/27 05:19:30;;;;;;;3.30;1.38;;;;;;;;;;5105177;28;20679;-16
2022/05/27 05:21:57;;;;;;;2.50;1.20;;;;;;;;;;5100606;28;20243;-16
2022/05/27 05:24:25;;;;;;;2.85;1.60;;;;;;;;;;5102068;28;20225;-16
2022/05/27 05:26:53;;;;;;;3.45;1.38;;;;;;;;;;5104520;27;20229;-16
2022/05/27 05:29:21;;;;;;;5.03;1.63;;;;;;;;;;5101388;28;20738;-16
2022/05/27 05:31:48;;;;;;;4.18;1.63;;;;;;;;;;5101376;28;20235;-16
2022/05/27 05:34:15;;;;;;;2.13;1.33;;;;;;;;;;5103241;28;20699;-16
2022/05/27 05:36:43;;;;;;;4.25;1.20;;;;;;;;;;5103250;28;20243;-16
2022/05/27 05:39:10;;;;;;;3.95;1.55;;;;;;;;;;5102369;28;20251;-16
2022/05/27 05:41:38;;;;;;;4.93;1.60;;;;;;;;;;5104781;28;20696;-16
2022/05/27 05:44:07;;;;;;;3.33;1.50;;;;;;;;;;5105405;28;20586;-16
2022/05/27 05:46:35;;;;;;;4.50;1.35;;;;;;;;;;5099598;28;20220;-16
2022/05/27 05:49:03;;;;;;;3.55;1.40;;;;;;;;;;5105083;27;20236;-16
2022/05/27 05:51:31;;;;;;;3.03;1.17;;;;;;;;;;5101477;28;20246;-16
2022/05/27 05:53:58;;;;;;;4.70;2.05;;;;;;;;;;5101223;28;20223;-16
2022/05/27 05:56:27;;;;;;;4.28;1.48;;;;;;;;;;5104400;28;20242;-16
2022/05/27 05:58:54;;;;;;;3.95;1.20;;;;;;;;;;5100714;28;21024;-16
2022/05/27 06:01:23;;;;;;;2.95;1.50;;;;;;;;;;5101439;28;20229;-16
2022/05/27 06:03:50;;;;;;;3.42;1.40;;;;;;;;;;5103399;28;21075;-16
2022/05/27 06:06:18;;;;;;;3.03;1.38;;;;;;;;;;5102725;28;20879;-16
2022/05/27 06:08:45;;;;;;;2.97;1.13;;;;;;;;;;5105039;28;20240;-16
2022/05/27 06:11:12;;;;;;;5.47;1.70;;;;;;;;;;5105148;28;20272;-16
2022/05/27 06:13:40;;;;;;;5.93;1.40;;;;;;;;;;5102277;28;20228;-16
2022/05/27 06:16:08;;;;;;;2.35;1.23;;;;;;;;;;5100762;28;21068;-16
2022/05/27 06:18:36;;;;;;;5.00;1.20;;;;;;;;;;5101019;28;20228;-16
2022/05/27 06:21:04;;;;;;;6.70;1.40;;;;;;;;;;5103264;28;20259;-16
2022/05/27 06:23:31;;;;;;;3.90;1.20;;;;;;;;;;5100807;28;20228;-16
2022/05/27 06:25:59;;;;;;;4.10;1.40;;;;;;;;;;5100681;28;20240;-16
2022/05/27 06:36:47;;;;;;;2.53;1.10;;;;;;;;;;5100041;28;20234;-16
2022/05/27 06:39:15;;;;;;;5.00;1.50;;;;;;;;;;5102206;28;20232;-16
2022/05/27 06:41:42;;;;;;;4.80;1.45;;;;;;;;;;5102355;28;20220;-16
2022/05/27 06:44:10;;;;;;;5.85;1.38;;;;;;;;;;5104178;28;20232;-16
2022/05/27 06:46:37;;;;;;;7.22;1.45;;;;;;;;;;5104377;28;20232;-16
2022/05/27 06:49:06;;;;;;;3.67;1.83;;;;;;;;;;5100806;28;20225;-16
2022/05/27 06:51:34;;;;;;;4.45;1.45;;;;;;;;;;5103603;28;20712;-16
2022/05/27 06:54:02;;;;;;;5.00;1.42;;;;;;;;;;5103366;28;20239;-16
2022/05/27 06:56:29;;;;;;;4.35;1.40;;;;;;;;;;5100138;28;20233;-16
2022/05/27 06:58:56;;;;;;;3.67;1.25;;;;;;;;;;5103477;28;20232;-16
2022/05/27 07:01:24;;;;;;;6.93;1.60;;;;;;;;;;5100189;28;20228;-16
2022/05/27 07:03:51;;;;;;;6.80;2.00;;;;;;;;;;5102488;28;20236;-16
2022/05/27 07:06:20;;;;;;;7.13;1.92;;;;;;;;;;5102264;27;20240;-16
2022/05/27 07:08:47;;;;;;;5.32;1.83;;;;;;;;;;5101092;28;20228;-16
2022/05/27 07:11:14;;;;;;;6.03;1.70;;;;;;;;;;5101996;28;20240;-16
2022/05/27 07:13:42;;;;;;;4.57;1.80;;;;;;;;;;5102093;28;20916;-16
2022/05/27 07:16:09;;;;;;;5.93;2.08;;;;;;;;;;5099499;28;21634;-16
2022/05/27 07:18:37;;;;;;;5.47;1.60;;;;;;;;;;5102635;28;20322;-16
2022/05/27 07:21:05;;;;;;;5.95;1.88;;;;;;;;;;5099464;28;20227;-16
2022/05/27 07:23:33;;;;;;;6.45;1.88;;;;;;;;;;5099726;28;20937;-16
2022/05/27 07:26:01;;;;;;;6.65;1.83;;;;;;;;;;5098018;28;20251;-16
2022/05/27 07:28:28;;;;;;;4.90;1.60;;;;;;;;;;5102277;28;20574;-16
2022/05/27 07:30:56;;;;;;;5.60;1.70;;;;;;;;;;5095870;28;20236;-16
2022/05/27 07:33:23;;;;;;;6.28;1.90;;;;;;;;;;5102695;28;20282;-16
2022/05/27 07:35:51;;;;;;;7.60;1.92;;;;;;;;;;5100370;28;20232;-16
2022/05/27 07:38:18;;;;;;;5.38;1.55;;;;;;;;;;5102877;28;20235;-16
2022/05/27 07:40:47;;;;;;;6.03;2.00;;;;;;;;;;5101383;28;20224;-16
2022/05/27 07:43:14;;;;;;;7.68;2.03;;;;;;;;;;5101180;28;20232;-16
2022/05/27 07:45:42;;;;;;;8.43;1.95;;;;;;;;;;5099611;28;20687;-16
2022/05/27 07:48:10;;;;;;;7.47;1.95;;;;;;;;;;5099734;27;20225;-16
2022/05/27 07:50:37;;;;;;;6.18;1.58;;;;;;;;;;5099293;28;20239;-16
2022/05/27 07:53:05;;;;;;;7.07;1.95;;;;;;;;;;5102627;28;20232;-16
2022/05/27 07:55:32;;;;;;;10.50;2.20;;;;;;;;;;5099533;28;20225;-16
2022/05/27 07:58:01;;;;;;;10.20;2.28;;;;;;;;;;5098479;28;20234;-16
2022/05/27 08:00:29;;;;;;;6.63;2.03;;;;;;;;;;5105474;27;20224;-16
2022/05/27 08:02:56;;;;;;;8.23;2.08;;;;;;;;;;5099067;28;20233;-16
2022/05/27 08:05:24;;;;;;;9.30;2.15;;;;;;;;;;5101887;28;20232;-16
2022/05/27 08:07:52;;;;;;;6.65;1.80;;;;;;;;;;5099637;28;20227;-16
2022/05/27 08:10:20;;;;;;;8.50;1.92;;;;;;;;;;5100108;28;20294;-16
2022/05/27 08:12:47;;;;;;;7.43;2.17;;;;;;;;;;5104623;28;20228;-16
2022/05/27 08:15:16;;;;;;;5.28;1.90;;;;;;;;;;5098288;28;20237;-16
2022/05/27 08:17:43;;;;;;;7.97;2.50;;;;;;;;;;5100613;28;20231;-16
2022/05/27 08:20:11;;;;;;;8.10;2.03;;;;;;;;;;5101205;28;20227;-16
2022/05/27 08:22:39;;;;;;;6.60;2.45;;;;;;;;;;5101486;28;20244;-16
2022/05/27 08:25:06;;;;;;;8.55;2.35;;;;;;;;;;5099107;28;20232;-16
2022/05/27 08:27:34;;;;;;;7.95;1.92;;;;;;;;;;5102422;28;20228;-16
2022/05/27 08:30:01;;;;;;;10.70;2.58;;;;;;;;;;5099002;28;20698;-16
2022/05/27 08:32:31;;;;;;;10.23;1.90;;;;;;;;;;5101490;28;20235;-16
2022/05/27 08:38:01;;;;;;;9.38;2.58;;;;;;;;;;5103921;28;20237;-16
2022/05/27 08:40:32;;;;;;;6.80;2.10;;;;;;;;;;5105171;28;20951;-16
2022/05/27 08:43:01;;;;;;;9.82;2.30;;;;;;;;;;5102115;28;20236;-16
2022/05/27 08:45:31;;;;;;;8.98;2.30;;;;;;;;;;5101267;27;20633;-16
2022/05/27 08:48:00;;;;;;;7.97;2.13;;;;;;;;;;5102153;28;20920;-16
2022/05/27 08:50:29;;;;;;;8.98;1.88;;;;;;;;;;5102368;28;20703;-16
2022/05/27 08:52:58;;;;;;;7.05;2.17;;;;;;;;;;5105734;28;20223;-16
2022/05/27 09:01:01;;;;;;;8.57;2.38;;;;;;;;;;5101847;28;20233;-16
2022/05/27 09:03:29;;;;;;;7.68;2.40;;;;;;;;;;5101602;28;20263;-16
2022/05/27 09:05:59;;;;;;;8.93;2.78;;;;;;;;;;5107602;28;20277;-16
2022/05/27 09:08:26;;;;;;;8.38;2.67;;;;;;;;;;5101985;28;20224;-16
2022/05/27 09:10:57;;;;;;;8.23;2.40;;;;;;;;;;5104484;28;20232;-16
2022/05/27 09:13:28;;;;;;;9.55;2.15;;;;;;;;;;5102320;28;20229;-16
2022/05/27 09:15:56;;;;;;;7.28;2.95;;;;;;;;;;5105563;28;20244;-16
2022/05/27 09:18:26;;;;;;;10.85;2.50;;;;;;;;;;5105658;27;20235;-16
2022/05/27 09:21:06;;;;;;;9.18;2.22;;;;;;;;;;5105419;28;20229;-16
2022/05/27 09:23:47;;;;;;;8.15;2.40;;;;;;;;;;5098046;28;20710;-16
2022/05/27 09:26:15;;;;;;;11.55;2.33;;;;;;;;;;5103570;28;20224;-16
2022/05/27 09:28:45;;;;;;;8.23;2.65;;;;;;;;;;5106019;28;20225;-16
2022/05/27 09:31:13;;;;;;;7.22;2.45;;;;;;;;;;5099935;28;20666;-16
2022/05/27 09:33:41;;;;;;;8.65;2.85;;;;;;;;;;5103575;28;20220;-16
2022/05/27 09:36:11;;;;;;;8.32;2.70;;;;;;;;;;5102115;28;20239;-16
2022/05/27 09:38:46;;;;;;;8.55;2.40;;;;;;;;;;5104111;28;20232;-16
2022/05/27 09:41:23;;;;;;;7.15;2.55;;;;;;;;;;5103456;28;20232;-16
2022/05/27 09:43:51;;;;;;;7.80;2.45;;;;;;;;;;5104020;28;20810;-16
2022/05/27 09:46:19;;;;;;;9.18;3.05;;;;;;;;;;5104623;28;20225;-16
2022/05/27 09:48:47;;;;;;;7.13;2.45;;;;;;;;;;5101815;28;20224;-16
2022/05/27 09:51:15;;;;;;;10.73;2.45;;;;;;;;;;5104684;27;20255;-16
2022/05/27 09:53:44;;;;;;;7.22;2.30;;;;;;;;;;5102527;28;20233;-16
2022/05/27 09:56:11;;;;;;;9.02;2.80;;;;;;;;;;5102739;28;20236;-16
2022/05/27 09:58:40;;;;;;;8.00;2.35;;;;;;;;;;5102015;28;20237;-16
2022/05/27 10:01:18;;;;;;;9.30;2.67;;;;;;;;;;5106484;28;21092;-16
2022/05/27 10:03:46;;;;;;;7.60;2.38;;;;;;;;;;5102847;28;20224;-16
2022/05/27 10:06:16;;;;;;;7.13;2.60;;;;;;;;;;5102514;28;20699;-16
2022/05/27 10:08:51;;;;;;;7.53;2.40;;;;;;;;;;5102594;28;20237;-16
2022/05/27 10:11:19;;;;;;;8.00;3.17;;;;;;;;;;5102855;28;20232;-16
2022/05/27 10:13:47;;;;;;;8.27;2.97;;;;;;;;;;5108790;28;20216;-16
2022/05/27 10:16:15;;;;;;;8.02;2.80;;;;;;;;;;5099870;28;20735;-16
2022/05/27 10:18:44;;;;;;;7.22;2.38;;;;;;;;;;5102732;28;20232;-16
2022/05/27 10:21:13;;;;;;;9.93;2.92;;;;;;;;;;5100296;28;20244;-16
2022/05/27 10:23:40;;;;;;;10.15;2.72;;;;;;;;;;5102192;28;20254;-16
2022/05/27 10:26:25;;;;;;;9.98;3.05;;;;;;;;;;5101432;28;20236;-16
2022/05/27 10:28:56;;;;;;;7.40;2.40;;;;;;;;;;5101416;28;20228;-16
2022/05/27 10:31:24;;;;;;;7.05;2.75;;;;;;;;;;5099666;28;20698;-16
2022/05/27 10:33:53;;;;;;;11.57;2.58;;;;;;;;;;5103259;27;20695;-16
2022/05/27 10:36:24;;;;;;;9.85;2.60;;;;;;;;;;5101588;28;20236;-16
2022/05/27 10:38:52;;;;;;;9.48;2.53;;;;;;;;;;5103078;28;20233;-16
2022/05/27 10:41:21;;;;;;;11.05;2.55;;;;;;;;;;5101355;28;20717;-16
2022/05/27 10:43:54;;;;;;;10.63;2.85;;;;;;;;;;5102314;28;20231;-16
2022/05/27 10:46:22;;;;;;;11.48;3.03;;;;;;;;;;5097401;27;20229;-16
2022/05/27 10:49:03;;;;;;;9.38;3.17;;;;;;;;;;5100907;28;20234;-16
2022/05/27 10:51:38;;;;;;;9.63;3.00;;;;;;;;;;5100342;28;20702;-16
2022/05/27 10:54:08;;;;;;;9.57;2.75;;;;;;;;;;5100948;28;20281;-16
2022/05/27 10:56:39;;;;;;;8.02;2.60;;;;;;;;;;5102100;28;20232;-16
2022/05/27 11:02:08;;;;;;;8.13;2.67;;;;;;;;;;5095708;28;20228;-16
2022/05/27 11:04:49;;;;;;;9.32;2.75;;;;;;;;;;5100501;28;20237;-16
2022/05/27 11:07:19;;;;;;;14.13;3.33;;;;;;;;;;5104704;28;20232;-16
2022/05/27 11:10:03;;;;;;;7.43;2.80;;;;;;;;;;5101755;28;20248;-16
2022/05/27 11:15:10;;;;;;;8.48;2.35;;;;;;;;;;5099220;28;20232;-16
2022/05/27 11:15:29;;;;;;;10.88;2.80;;;;;;;;;;5102518;28;20236;-16
2022/05/27 11:17:59;;;;;;;8.57;2.60;;;;;;;;;;5102282;28;20254;-16
2022/05/27 11:20:39;;;;;;;10.63;2.50;;;;;;;;;;5099860;28;20232;-16
2022/05/27 11:23:08;;;;;;;9.30;2.72;;;;;;;;;;5100001;28;20229;-16
2022/05/27 11:25:40;;;;;;;9.20;2.58;;;;;;;;;;5103218;28;21008;-16
2022/05/27 11:28:19;;;;;;;9.38;2.97;;;;;;;;;;5102251;28;20231;-16
2022/05/27 11:30:51;;;;;;;9.18;2.80;;;;;;;;;;5103445;28;20228;-16
2022/05/27 11:33:22;;;;;;;9.45;2.33;;;;;;;;;;5101744;28;20220;-16
2022/05/27 11:36:00;;;;;;;11.13;2.58;;;;;;;;;;5100511;28;20293;-16
2022/05/27 11:38:37;;;;;;;10.38;2.78;;;;;;;;;;5099265;28;20239;-16
2022/05/27 11:41:06;;;;;;;9.30;2.72;;;;;;;;;;5102551;28;20232;-16
2022/05/27 11:43:38;;;;;;;10.48;2.80;;;;;;;;;;5103917;28;20686;-15
2022/05/27 11:46:13;;;;;;;5.95;2.05;;;;;;;;;;5098926;28;20294;-16
2022/05/27 11:48:41;;;;;;;8.23;2.28;;;;;;;;;;5100334;28;20244;-15
2022/05/27 11:51:11;;;;;;;8.40;2.55;;;;;;;;;;5101785;27;20229;-15
2022/05/27 11:53:42;;;;;;;9.05;2.17;;;;;;;;;;5101833;28;20230;-15
2022/05/27 11:56:12;;;;;;;8.30;2.50;;;;;;;;;;5100199;28;20241;-15
2022/05/27 11:58:42;;;;;;;7.18;2.28;;;;;;;;;;5101716;28;20235;-15
2022/05/27 12:01:12;;;;;;;9.10;2.60;;;;;;;;;;5096363;28;20221;-15
2022/05/27 12:03:41;;;;;;;9.13;2.50;;;;;;;;;;5098390;28;20750;-16
2022/05/27 12:06:09;;;;;;;11.60;2.50;;;;;;;;;;5099179;28;20231;-15
2022/05/27 12:08:38;;;;;;;10.68;2.72;;;;;;;;;;5099741;28;20233;-15
2022/05/27 12:11:07;;;;;;;6.68;2.08;;;;;;;;;;5099560;28;20228;-16
2022/05/27 12:13:35;;;;;;;11.52;2.45;;;;;;;;;;5105597;27;20356;-15
2022/05/27 12:16:03;;;;;;;7.05;2.42;;;;;;;;;;5101668;28;20241;-16
2022/05/27 12:18:35;;;;;;;11.05;2.33;;;;;;;;;;5105958;28;20643;-16
2022/05/27 12:21:05;;;;;;;9.00;2.92;;;;;;;;;;5102113;28;20244;-16
2022/05/27 12:23:32;;;;;;;10.70;2.55;;;;;;;;;;5106184;28;20238;-16
2022/05/27 12:26:01;;;;;;;6.72;2.03;;;;;;;;;;5102686;28;20231;-15
2022/05/27 12:28:30;;;;;;;7.38;2.53;;;;;;;;;;5105468;28;20254;-15
2022/05/27 12:30:57;;;;;;;8.52;2.17;;;;;;;;;;5101789;27;20274;-15
2022/05/27 12:33:25;;;;;;;8.48;2.25;;;;;;;;;;5101740;28;20286;-15
2022/05/27 12:35:57;;;;;;;10.02;2.15;;;;;;;;;;5102003;27;20240;-15
2022/05/27 12:38:25;;;;;;;7.25;2.33;;;;;;;;;;5105232;28;20223;-16
2022/05/27 12:40:52;;;;;;;13.73;3.05;;;;;;;;;;5103225;28;20224;-16
2022/05/27 12:43:21;;;;;;;7.90;2.22;;;;;;;;;;5104617;28;21027;-15
2022/05/27 12:45:49;;;;;;;7.57;2.15;;;;;;;;;;5102838;28;20236;-16
2022/05/27 12:48:30;;;;;;;10.98;2.55;;;;;;;;;;5104084;28;21076;-15
2022/05/27 12:50:59;;;;;;;9.07;2.88;;;;;;;;;;5102003;28;20228;-15
2022/05/27 12:53:37;;;;;;;10.55;2.38;;;;;;;;;;5101481;28;20945;-15
2022/05/27 13:02:33;;;;;;;10.35;2.75;;;;;;;;;;5102219;28;20224;-15
2022/05/27 13:05:01;;;;;;;9.45;3.03;;;;;;;;;;5102191;28;20257;-15
2022/05/27 13:07:44;;;;;;;6.03;2.00;;;;;;;;;;5105489;27;21022;-15
2022/05/27 13:10:30;;;;;;;9.32;2.30;;;;;;;;;;5102695;28;20233;-16
2022/05/27 13:13:00;;;;;;;6.53;2.28;;;;;;;;;;5101604;28;20228;-16
2022/05/27 13:15:31;;;;;;;6.28;2.22;;;;;;;;;;5101821;28;20225;-15
2022/05/27 13:18:07;;;;;;;7.47;2.65;;;;;;;;;;5101428;28;20240;-15
2022/05/27 13:20:39;;;;;;;6.50;2.00;;;;;;;;;;5104038;28;20227;-15
2022/05/27 13:23:11;;;;;;;9.02;2.10;;;;;;;;;;5100001;27;20233;-15
2022/05/27 13:25:39;;;;;;;5.60;2.03;;;;;;;;;;5103827;28;20236;-16
2022/05/27 13:28:09;;;;;;;6.30;2.30;;;;;;;;;;5102162;28;20249;-15
2022/05/27 13:30:53;;;;;;;6.95;2.33;;;;;;;;;;5100529;28;20229;-15
2022/05/27 13:33:20;;;;;;;9.23;2.83;;;;;;;;;;5103669;28;20981;-15
2022/05/27 13:35:48;;;;;;;9.65;2.38;;;;;;;;;;5103121;28;20943;-15
2022/05/27 13:38:25;;;;;;;6.15;2.03;;;;;;;;;;5104091;28;20245;-15
2022/05/27 13:40:52;;;;;;;9.38;2.33;;;;;;;;;;5104026;28;20228;-16
2022/05/27 13:43:20;;;;;;;9.90;2.45;;;;;;;;;;5102403;28;20228;-15
2022/05/27 13:45:49;;;;;;;8.40;2.65;;;;;;;;;;5104503;28;20315;-16
2022/05/27 13:48:17;;;;;;;8.82;1.92;;;;;;;;;;5103059;28;20323;-15
2022/05/27 13:50:45;;;;;;;8.77;2.03;;;;;;;;;;5103162;28;20228;-15
2022/05/27 13:53:17;;;;;;;6.75;1.63;;;;;;;;;;5102286;28;20236;-15
2022/05/27 13:55:45;;;;;;;9.35;2.08;;;;;;;;;;5102722;28;20229;-15
2022/05/27 13:58:13;;;;;;;5.97;2.00;;;;;;;;;;5100890;28;21072;-15
2022/05/27 14:00:42;;;;;;;8.48;2.08;;;;;;;;;;5100673;28;20225;-15
2022/05/27 14:03:09;;;;;;;6.22;1.98;;;;;;;;;;5101365;28;20229;-15
2022/05/27 14:05:37;;;;;;;5.95;2.13;;;;;;;;;;5103788;27;20232;-15
2022/05/27 14:08:04;;;;;;;7.10;2.22;;;;;;;;;;5101028;28;20231;-16
2022/05/27 14:10:32;;;;;;;13.15;2.83;;;;;;;;;;5103856;28;20963;-15
2022/05/27 14:13:14;;;;;;;6.88;2.05;;;;;;;;;;5100638;28;21087;-15
2022/05/27 14:15:42;;;;;;;6.50;2.25;;;;;;;;;;5102429;28;20695;-16
2022/05/27 14:18:09;;;;;;;7.82;2.20;;;;;;;;;;5103092;28;20240;-15
2022/05/27 14:23:19;;;;;;;8.05;1.90;;;;;;;;;;5102572;28;20236;-15
2022/05/27 14:25:46;;;;;;;8.70;2.38;;;;;;;;;;5103249;28;20726;-16
2022/05/27 14:28:21;;;;;;;6.15;1.58;;;;;;;;;;5102690;28;20965;-15
2022/05/27 14:30:50;;;;;;;8.48;2.00;;;;;;;;;;5104228;28;21015;-15
2022/05/27 14:33:21;;;;;;;8.63;2.00;;;;;;;;;;5101931;28;20233;-15
2022/05/27 14:35:48;;;;;;;6.60;2.35;;;;;;;;;;5102575;27;20232;-16
2022/05/27 14:38:16;;;;;;;7.07;1.90;;;;;;;;;;5102466;28;20722;-15
2022/05/27 14:40:45;;;;;;;6.65;1.88;;;;;;;;;;5100687;28;20228;-15
2022/05/27 14:43:21;;;;;;;8.45;2.17;;;;;;;;;;5101724;28;20225;-16
2022/05/27 14:45:49;;;;;;;5.88;1.70;;;;;;;;;;5097417;28;20240;-15
2022/05/27 14:48:21;;;;;;;8.77;2.03;;;;;;;;;;5103145;28;20235;-15
2022/05/27 14:50:48;;;;;;;6.95;2.05;;;;;;;;;;5100179;28;20818;-16
2022/05/27 14:53:16;;;;;;;6.22;2.00;;;;;;;;;;5101833;28;20239;-15
2022/05/27 14:55:43;;;;;;;7.05;2.08;;;;;;;;;;5102104;28;20232;-15
2022/05/27 14:58:11;;;;;;;10.05;2.40;;;;;;;;;;5103490;28;21021;-15
2022/05/27 15:00:43;;;;;;;5.50;2.15;;;;;;;;;;5099591;28;20224;-15
2022/05/27 15:03:27;;;;;;;8.00;2.35;;;;;;;;;;5100843;28;20229;-16
2022/05/27 15:05:55;;;;;;;7.88;2.05;;;;;;;;;;5100574;28;20243;-16
2022/05/27 15:08:29;;;;;;;8.05;1.75;;;;;;;;;;5102294;28;20228;-16
2022/05/27 15:11:04;;;;;;;7.10;2.10;;;;;;;;;;5103660;27;20234;-16
2022/05/27 15:13:32;;;;;;;7.57;2.08;;;;;;;;;;5099917;28;20239;-16
2022/05/27 15:16:11;;;;;;;9.52;1.90;;;;;;;;;;5099475;28;20232;-16
2022/05/27 15:18:42;;;;;;;5.60;2.13;;;;;;;;;;5096271;28;20987;-16
2022/05/27 15:21:10;;;;;;;11.38;2.40;;;;;;;;;;5102045;27;20237;-15
2022/05/27 15:23:41;;;;;;;7.35;2.20;;;;;;;;;;5101895;28;20252;-15
2022/05/27 15:34:33;;;;;;;6.45;1.90;;;;;;;;;;5099428;28;20236;-15
2022/05/27 15:37:00;;;;;;;5.97;1.40;;;;;;;;;;5103377;28;20231;-15